sensor_id;sensor_type;location;lat;lon;timestamp;pressure;altitude;pressure_sealevel;temperature;humidity
43703;BME280;29304;56.146;40.396;2022-07-29T00:00:06;99452.38;;;21.08;100.00
43703;BME280;29304;56.146;40.396;2022-07-29T00:00:17;99443.50;;;20.99;100.00
43703;BME280;29304;56.146;40.396;2022-07-29T00:00:28;99448.22;;;21.05;100.00
43703;BME280;29304;56.146;40.396;2022-07-29T00:00:38;99459.13;;;21.02;100.00
43703;BME280;29304;56.146;40.396;2022-07-29T00:00:48;99454.63;;;21.03;100.00
43703;BME280;29304;56.146;40.396;2022-07-29T00:00:59;99457.09;;;20.96;100.00
43703;BME280;29304;56.146;40.396;2022-07-29T00:01:14;99445.09;;;20.92;100.00
43703;BME280;29304;56.146;40.396;2022-07-29T00:01:25;99445.47;;;20.97;100.00
43703;BME280;29304;56.146;40.396;2022-07-29T00:01:35;99455.19;;;21.06;100.00
43703;BME280;29304;56.146;40.396;2022-07-29T00:01:46;99452.66;;;21.05;100.00
43703;BME280;29304;56.146;40.396;2022-07-29T00:01:56;99449.72;;;21.08;100.00
43703;BME280;29304;56.146;40.396;2022-07-29T00:02:07;99453.97;;;21.00;100.00
43703;BME280;29304;56.146;40.396;2022-07-29T00:02:17;99452.16;;;21.01;100.00
43703;BME280;29304;56.146;40.396;2022-07-29T00:02:28;99456.31;;;21.04;100.00
43703;BME280;29304;56.146;40.396;2022-07-29T00:02:38;99450.47;;;21.00;100.00
43703;BME280;29304;56.146;40.396;2022-07-29T00:02:49;99450.31;;;21.01;100.00
43703;BME280;29304;56.146;40.396;2022-07-29T00:02:59;99456.47;;;21.02;100.00
43703;BME280;29304;56.146;40.396;2022-07-29T00:03:13;99455.25;;;20.96;100.00
43703;BME280;29304;56.146;40.396;2022-07-29T00:03:23;99455.25;;;20.96;100.00
43703;BME280;29304;56.146;40.396;2022-07-29T00:03:34;99447.75;;;20.92;100.00
43703;BME280;29304;56.146;40.396;2022-07-29T00:03:44;99454.72;;;20.93;100.00
43703;BME280;29304;56.146;40.396;2022-07-29T00:03:55;99455.03;;;20.90;100.00
43703;BME280;29304;56.146;40.396;2022-07-29T00:04:05;99457.69;;;20.90;100.00
43703;BME280;29304;56.146;40.396;2022-07-29T00:04:16;99459.66;;;20.88;100.00
43703;BME280;29304;56.146;40.396;2022-07-29T00:04:26;99459.19;;;20.92;100.00
43703;BME280;29304;56.146;40.396;2022-07-29T00:04:37;99463.22;;;20.96;100.00
43703;BME280;29304;56.146;40.396;2022-07-29T00:04:47;99463.91;;;20.98;100.00
43703;BME280;29304;56.146;40.396;2022-07-29T00:04:58;99456.22;;;20.95;100.00
43703;BME280;29304;56.146;40.396;2022-07-29T00:05:09;99462.00;;;20.91;100.00
43703;BME280;29304;56.146;40.396;2022-07-29T00:05:20;99454.03;;;20.91;100.00
43703;BME280;29304;56.146;40.396;2022-07-29T00:05:30;99464.19;;;20.95;100.00
43703;BME280;29304;56.146;40.396;2022-07-29T00:05:41;99456.31;;;20.85;100.00
43703;BME280;29304;56.146;40.396;2022-07-29T00:05:52;99459.56;;;20.79;100.00
43703;BME280;29304;56.146;40.396;2022-07-29T00:06:03;99461.25;;;20.80;100.00
43703;BME280;29304;56.146;40.396;2022-07-29T00:06:14;99463.75;;;20.82;100.00
43703;BME280;29304;56.146;40.396;2022-07-29T00:06:25;99462.09;;;20.81;100.00
43703;BME280;29304;56.146;40.396;2022-07-29T00:06:35;99466.97;;;20.76;100.00
43703;BME280;29304;56.146;40.396;2022-07-29T00:06:46;99461.41;;;20.79;100.00
43703;BME280;29304;56.146;40.396;2022-07-29T00:06:56;99473.81;;;20.78;100.00
43703;BME280;29304;56.146;40.396;2022-07-29T00:07:06;99460.81;;;20.75;100.00
43703;BME280;29304;56.146;40.396;2022-07-29T00:07:17;99471.06;;;20.70;100.00
43703;BME280;29304;56.146;40.396;2022-07-29T00:07:27;99465.34;;;20.65;100.00
43703;BME280;29304;56.146;40.396;2022-07-29T00:07:38;99466.50;;;20.62;100.00
43703;BME280;29304;56.146;40.396;2022-07-29T00:07:48;99461.03;;;20.64;100.00
43703;BME280;29304;56.146;40.396;2022-07-29T00:07:59;99470.44;;;20.58;100.00
43703;BME280;29304;56.146;40.396;2022-07-29T00:08:09;99458.00;;;20.59;100.00
43703;BME280;29304;56.146;40.396;2022-07-29T00:08:20;99470.28;;;20.60;100.00
43703;BME280;29304;56.146;40.396;2022-07-29T00:08:30;99468.91;;;20.55;100.00
43703;BME280;29304;56.146;40.396;2022-07-29T00:08:41;99452.13;;;20.37;100.00
43703;BME280;29304;56.146;40.396;2022-07-29T00:08:51;99468.44;;;20.42;100.00
43703;BME280;29304;56.146;40.396;2022-07-29T00:09:02;99464.53;;;20.36;100.00
43703;BME280;29304;56.146;40.396;2022-07-29T00:09:12;99466.78;;;20.31;100.00
43703;BME280;29304;56.146;40.396;2022-07-29T00:09:23;99476.00;;;20.37;100.00
43703;BME280;29304;56.146;40.396;2022-07-29T00:09:33;99475.41;;;20.43;100.00
43703;BME280;29304;56.146;40.396;2022-07-29T00:09:44;99471.09;;;20.42;100.00
43703;BME280;29304;56.146;40.396;2022-07-29T00:09:55;99469.25;;;20.42;100.00
43703;BME280;29304;56.146;40.396;2022-07-29T00:10:05;99476.63;;;20.49;100.00
43703;BME280;29304;56.146;40.396;2022-07-29T00:10:16;99469.81;;;20.46;100.00
43703;BME280;29304;56.146;40.396;2022-07-29T00:10:26;99476.09;;;20.45;100.00
43703;BME280;29304;56.146;40.396;2022-07-29T00:10:37;99469.41;;;20.41;100.00
43703;BME280;29304;56.146;40.396;2022-07-29T00:10:48;99475.72;;;20.40;100.00
43703;BME280;29304;56.146;40.396;2022-07-29T00:10:58;99475.72;;;20.40;100.00
43703;BME280;29304;56.146;40.396;2022-07-29T00:11:08;99471.78;;;20.44;100.00
43703;BME280;29304;56.146;40.396;2022-07-29T00:11:19;99471.09;;;20.42;100.00
43703;BME280;29304;56.146;40.396;2022-07-29T00:11:29;99480.13;;;20.49;100.00
43703;BME280;29304;56.146;40.396;2022-07-29T00:11:40;99475.81;;;20.48;100.00
43703;BME280;29304;56.146;40.396;2022-07-29T00:11:50;99468.88;;;20.37;100.00
43703;BME280;29304;56.146;40.396;2022-07-29T00:12:01;99470.44;;;20.30;100.00
43703;BME280;29304;56.146;40.396;2022-07-29T00:12:12;99469.44;;;20.31;100.00
43703;BME280;29304;56.146;40.396;2022-07-29T00:12:24;99461.66;;;20.30;100.00
43703;BME280;29304;56.146;40.396;2022-07-29T00:12:34;99462.47;;;20.30;100.00
43703;BME280;29304;56.146;40.396;2022-07-29T00:12:46;99465.97;;;20.31;100.00
43703;BME280;29304;56.146;40.396;2022-07-29T00:12:56;99475.34;;;20.25;100.00
43703;BME280;29304;56.146;40.396;2022-07-29T00:13:07;99473.38;;;20.27;100.00
43703;BME280;29304;56.146;40.396;2022-07-29T00:13:17;99462.38;;;20.22;100.00
43703;BME280;29304;56.146;40.396;2022-07-29T00:13:28;99472.31;;;20.20;100.00
43703;BME280;29304;56.146;40.396;2022-07-29T00:13:38;99470.38;;;20.12;100.00
43703;BME280;29304;56.146;40.396;2022-07-29T00:13:49;99471.91;;;20.15;100.00
43703;BME280;29304;56.146;40.396;2022-07-29T00:13:59;99466.31;;;20.18;100.00
43703;BME280;29304;56.146;40.396;2022-07-29T00:14:10;99461.31;;;20.15;100.00
43703;BME280;29304;56.146;40.396;2022-07-29T00:14:20;99468.38;;;20.24;100.00
43703;BME280;29304;56.146;40.396;2022-07-29T00:14:30;99480.94;;;20.22;100.00
43703;BME280;29304;56.146;40.396;2022-07-29T00:14:41;99468.13;;;20.17;100.00
43703;BME280;29304;56.146;40.396;2022-07-29T00:14:53;99471.47;;;20.19;100.00
43703;BME280;29304;56.146;40.396;2022-07-29T00:15:04;99468.81;;;20.19;100.00
43703;BME280;29304;56.146;40.396;2022-07-29T00:15:15;99475.72;;;20.30;100.00
43703;BME280;29304;56.146;40.396;2022-07-29T00:15:25;99474.63;;;20.33;100.00
43703;BME280;29304;56.146;40.396;2022-07-29T00:15:35;99479.25;;;20.31;100.00
43703;BME280;29304;56.146;40.396;2022-07-29T00:15:46;99470.03;;;20.25;100.00
43703;BME280;29304;56.146;40.396;2022-07-29T00:15:56;99472.56;;;20.26;100.00
43703;BME280;29304;56.146;40.396;2022-07-29T00:16:07;99456.53;;;20.18;100.00
43703;BME280;29304;56.146;40.396;2022-07-29T00:16:17;99469.34;;;20.23;100.00
43703;BME280;29304;56.146;40.396;2022-07-29T00:16:28;99471.47;;;20.19;100.00
43703;BME280;29304;56.146;40.396;2022-07-29T00:16:38;99471.88;;;20.24;100.00
43703;BME280;29304;56.146;40.396;2022-07-29T00:16:49;99472.56;;;20.26;100.00
43703;BME280;29304;56.146;40.396;2022-07-29T00:16:59;99470.88;;;20.25;100.00
43703;BME280;29304;56.146;40.396;2022-07-29T00:17:09;99465.63;;;20.16;100.00
43703;BME280;29304;56.146;40.396;2022-07-29T00:17:20;99468.66;;;20.21;100.00
43703;BME280;29304;56.146;40.396;2022-07-29T00:17:30;99469.66;;;20.20;100.00
43703;BME280;29304;56.146;40.396;2022-07-29T00:17:41;99464.78;;;20.15;100.00
43703;BME280;29304;56.146;40.396;2022-07-29T00:17:51;99471.06;;;20.14;100.00
43703;BME280;29304;56.146;40.396;2022-07-29T00:18:02;99474.69;;;20.13;100.00
43703;BME280;29304;56.146;40.396;2022-07-29T00:18:12;99470.25;;;20.14;100.00
43703;BME280;29304;56.146;40.396;2022-07-29T00:18:23;99480.41;;;20.18;100.00
43703;BME280;29304;56.146;40.396;2022-07-29T00:18:33;99467.84;;;20.20;100.00
43703;BME280;29304;56.146;40.396;2022-07-29T00:18:44;99475.94;;;20.19;100.00
43703;BME280;29304;56.146;40.396;2022-07-29T00:18:54;99476.59;;;20.21;100.00
43703;BME280;29304;56.146;40.396;2022-07-29T00:19:04;99477.06;;;20.16;100.00
43703;BME280;29304;56.146;40.396;2022-07-29T00:19:15;99468.00;;;20.19;100.00
43703;BME280;29304;56.146;40.396;2022-07-29T00:19:25;99470.66;;;20.19;100.00
43703;BME280;29304;56.146;40.396;2022-07-29T00:19:36;99469.66;;;20.20;100.00
43703;BME280;29304;56.146;40.396;2022-07-29T00:19:46;99460.63;;;20.12;100.00
43703;BME280;29304;56.146;40.396;2022-07-29T00:19:57;99470.25;;;20.14;100.00
43703;BME280;29304;56.146;40.396;2022-07-29T00:20:08;99478.59;;;20.19;100.00
43703;BME280;29304;56.146;40.396;2022-07-29T00:20:18;99470.66;;;20.19;100.00
43703;BME280;29304;56.146;40.396;2022-07-29T00:20:29;99464.25;;;20.11;100.00
43703;BME280;29304;56.146;40.396;2022-07-29T00:20:39;99462.19;;;20.05;100.00
43703;BME280;29304;56.146;40.396;2022-07-29T00:20:50;99466.91;;;20.11;100.00
43703;BME280;29304;56.146;40.396;2022-07-29T00:21:00;99470.97;;;20.06;100.00
43703;BME280;29304;56.146;40.396;2022-07-29T00:21:10;99466.09;;;20.01;100.00
43703;BME280;29304;56.146;40.396;2022-07-29T00:21:21;99473.78;;;20.04;100.00
43703;BME280;29304;56.146;40.396;2022-07-29T00:21:31;99481.72;;;20.04;100.00
43703;BME280;29304;56.146;40.396;2022-07-29T00:21:42;99475.56;;;20.04;100.00
43703;BME280;29304;56.146;40.396;2022-07-29T00:21:52;99473.38;;;19.99;100.00
43703;BME280;29304;56.146;40.396;2022-07-29T00:22:03;99472.22;;;20.02;100.00
43703;BME280;29304;56.146;40.396;2022-07-29T00:22:13;99475.44;;;20.05;100.00
43703;BME280;29304;56.146;40.396;2022-07-29T00:22:24;99468.19;;;20.07;100.00
43703;BME280;29304;56.146;40.396;2022-07-29T00:22:37;99473.59;;;20.06;100.00
43703;BME280;29304;56.146;40.396;2022-07-29T00:22:48;99475.56;;;20.04;100.00
43703;BME280;29304;56.146;40.396;2022-07-29T00:22:58;99473.06;;;20.02;100.00
43703;BME280;29304;56.146;40.396;2022-07-29T00:23:09;99468.88;;;20.00;100.00
43703;BME280;29304;56.146;40.396;2022-07-29T00:23:19;99477.81;;;19.98;100.00
43703;BME280;29304;56.146;40.396;2022-07-29T00:23:29;99468.88;;;20.00;100.00
43703;BME280;29304;56.146;40.396;2022-07-29T00:23:40;99475.31;;;19.97;100.00
43703;BME280;29304;56.146;40.396;2022-07-29T00:23:50;99473.38;;;19.99;100.00
43703;BME280;29304;56.146;40.396;2022-07-29T00:24:01;99475.56;;;20.04;100.00
43703;BME280;29304;56.146;40.396;2022-07-29T00:24:11;99479.06;;;20.04;100.00
43703;BME280;29304;56.146;40.396;2022-07-29T00:24:22;99461.38;;;19.95;100.00
43703;BME280;29304;56.146;40.396;2022-07-29T00:24:32;99466.69;;;19.95;100.00
43703;BME280;29304;56.146;40.396;2022-07-29T00:24:43;99465.69;;;19.96;100.00
43703;BME280;29304;56.146;40.396;2022-07-29T00:24:53;99470.59;;;19.91;100.00
43703;BME280;29304;56.146;40.396;2022-07-29T00:25:04;99469.03;;;19.98;100.00
43703;BME280;29304;56.146;40.396;2022-07-29T00:25:15;99474.34;;;19.98;100.00
43703;BME280;29304;56.146;40.396;2022-07-29T00:25:25;99477.81;;;19.98;100.00
43703;BME280;29304;56.146;40.396;2022-07-29T00:25:35;99470.13;;;20.05;100.00
43703;BME280;29304;56.146;40.396;2022-07-29T00:25:46;99469.84;;;20.08;100.00
43703;BME280;29304;56.146;40.396;2022-07-29T00:25:56;99472.50;;;20.08;100.00
43703;BME280;29304;56.146;40.396;2022-07-29T00:26:07;99466.94;;;20.02;100.00
43703;BME280;29304;56.146;40.396;2022-07-29T00:26:17;99473.38;;;19.99;100.00
43703;BME280;29304;56.146;40.396;2022-07-29T00:26:28;99468.06;;;19.99;100.00
43703;BME280;29304;56.146;40.396;2022-07-29T00:26:41;99474.06;;;20.01;100.00
43703;BME280;29304;56.146;40.396;2022-07-29T00:26:52;99474.19;;;20.00;100.00
43703;BME280;29304;56.146;40.396;2022-07-29T00:27:02;99473.06;;;20.02;100.00
43703;BME280;29304;56.146;40.396;2022-07-29T00:27:13;99475.56;;;20.04;100.00
43703;BME280;29304;56.146;40.396;2022-07-29T00:27:23;99474.47;;;20.06;100.00
43703;BME280;29304;56.146;40.396;2022-07-29T00:27:35;99476.13;;;20.07;100.00
43703;BME280;29304;56.146;40.396;2022-07-29T00:27:46;99482.81;;;20.11;100.00
43703;BME280;29304;56.146;40.396;2022-07-29T00:27:56;99474.00;;;20.11;100.00
43703;BME280;29304;56.146;40.396;2022-07-29T00:28:06;99469.72;;;20.00;100.00
43703;BME280;29304;56.146;40.396;2022-07-29T00:28:17;99476.53;;;20.03;100.00
43703;BME280;29304;56.146;40.396;2022-07-29T00:28:27;99480.88;;;20.04;100.00
43703;BME280;29304;56.146;40.396;2022-07-29T00:28:38;99477.94;;;20.07;100.00
43703;BME280;29304;56.146;40.396;2022-07-29T00:28:48;99473.59;;;20.06;100.00
43703;BME280;29304;56.146;40.396;2022-07-29T00:28:59;99477.25;;;20.05;100.00
43703;BME280;29304;56.146;40.396;2022-07-29T00:29:10;99478.50;;;20.10;100.00
43703;BME280;29304;56.146;40.396;2022-07-29T00:29:20;99477.09;;;20.06;100.00
43703;BME280;29304;56.146;40.396;2022-07-29T00:29:31;99476.94;;;20.08;100.00
43703;BME280;29304;56.146;40.396;2022-07-29T00:29:41;99472.50;;;19.98;100.00
43703;BME280;29304;56.146;40.396;2022-07-29T00:29:52;99470.03;;;19.97;100.00
43703;BME280;29304;56.146;40.396;2022-07-29T00:30:03;99477.94;;;20.07;100.00
43703;BME280;29304;56.146;40.396;2022-07-29T00:30:14;99476.41;;;20.04;100.00
43703;BME280;29304;56.146;40.396;2022-07-29T00:30:24;99479.47;;;20.00;100.00
43703;BME280;29304;56.146;40.396;2022-07-29T00:30:35;99472.50;;;19.98;100.00
43703;BME280;29304;56.146;40.396;2022-07-29T00:30:45;99478.38;;;20.02;100.00
43703;BME280;29304;56.146;40.396;2022-07-29T00:30:56;99476.13;;;20.07;100.00
43703;BME280;29304;56.146;40.396;2022-07-29T00:31:06;99478.63;;;20.09;100.00
43703;BME280;29304;56.146;40.396;2022-07-29T00:31:18;99471.69;;;19.98;100.00
43703;BME280;29304;56.146;40.396;2022-07-29T00:31:28;99477.13;;;19.96;100.00
43703;BME280;29304;56.146;40.396;2022-07-29T00:31:39;99479.25;;;19.93;100.00
43703;BME280;29304;56.146;40.396;2022-07-29T00:31:49;99476.31;;;19.86;100.00
43703;BME280;29304;56.146;40.396;2022-07-29T00:32:00;99477.41;;;19.93;100.00
43703;BME280;29304;56.146;40.396;2022-07-29T00:32:11;99483.28;;;19.97;100.00
43703;BME280;29304;56.146;40.396;2022-07-29T00:32:21;99473.22;;;20.01;100.00
43703;BME280;29304;56.146;40.396;2022-07-29T00:32:32;99479.34;;;20.01;100.00
43703;BME280;29304;56.146;40.396;2022-07-29T00:32:42;99475.75;;;19.92;100.00
43703;BME280;29304;56.146;40.396;2022-07-29T00:32:53;99485.22;;;19.95;100.00
43703;BME280;29304;56.146;40.396;2022-07-29T00:33:03;99478.09;;;19.95;100.00
43703;BME280;29304;56.146;40.396;2022-07-29T00:33:14;99478.97;;;19.96;100.00
43703;BME280;29304;56.146;40.396;2022-07-29T00:33:24;99479.94;;;19.95;100.00
43703;BME280;29304;56.146;40.396;2022-07-29T00:33:35;99475.44;;;19.95;100.00
43703;BME280;29304;56.146;40.396;2022-07-29T00:33:45;99483.13;;;19.98;100.00
43703;BME280;29304;56.146;40.396;2022-07-29T00:33:56;99478.09;;;20.05;100.00
43703;BME280;29304;56.146;40.396;2022-07-29T00:34:06;99471.66;;;20.08;100.00
43703;BME280;29304;56.146;40.396;2022-07-29T00:34:37;99482.53;;;20.05;100.00
43703;BME280;29304;56.146;40.396;2022-07-29T00:35:06;99473.88;;;20.12;100.00
43703;BME280;29304;56.146;40.396;2022-07-29T00:35:36;99474.34;;;19.98;100.00
43703;BME280;29304;56.146;40.396;2022-07-29T00:35:55;99470.72;;;19.99;100.00
43703;BME280;29304;56.146;40.396;2022-07-29T00:36:05;99471.53;;;20.00;100.00
43703;BME280;29304;56.146;40.396;2022-07-29T00:36:16;99468.31;;;20.06;100.00
43703;BME280;29304;56.146;40.396;2022-07-29T00:36:26;99470.81;;;20.07;100.00
43703;BME280;29304;56.146;40.396;2022-07-29T00:36:37;99473.03;;;20.12;100.00
43703;BME280;29304;56.146;40.396;2022-07-29T00:36:47;99475.84;;;20.10;100.00
43703;BME280;29304;56.146;40.396;2022-07-29T00:36:58;99468.31;;;20.06;100.00
43703;BME280;29304;56.146;40.396;2022-07-29T00:37:08;99471.94;;;20.05;100.00
43703;BME280;29304;56.146;40.396;2022-07-29T00:37:18;99468.47;;;20.04;100.00
43703;BME280;29304;56.146;40.396;2022-07-29T00:37:29;99470.44;;;20.02;100.00
43703;BME280;29304;56.146;40.396;2022-07-29T00:37:39;99468.88;;;20.00;100.00
43703;BME280;29304;56.146;40.396;2022-07-29T00:37:50;99472.63;;;20.07;100.00
43703;BME280;29304;56.146;40.396;2022-07-29T00:38:01;99465.25;;;20.10;100.00
43703;BME280;29304;56.146;40.396;2022-07-29T00:38:17;99462.19;;;20.05;100.00
43703;BME280;29304;56.146;40.396;2022-07-29T00:38:27;99468.31;;;20.06;100.00
43703;BME280;29304;56.146;40.396;2022-07-29T00:38:38;99463.06;;;19.96;100.00
43703;BME280;29304;56.146;40.396;2022-07-29T00:38:49;99471.41;;;20.01;100.00
43703;BME280;29304;56.146;40.396;2022-07-29T00:39:00;99466.50;;;20.06;100.00
43703;BME280;29304;56.146;40.396;2022-07-29T00:39:11;99476.66;;;20.11;100.00
43703;BME280;29304;56.146;40.396;2022-07-29T00:39:21;99473.03;;;20.12;100.00
43703;BME280;29304;56.146;40.396;2022-07-29T00:39:32;99474.41;;;20.16;100.00
43703;BME280;29304;56.146;40.396;2022-07-29T00:39:43;99471.06;;;20.14;100.00
43703;BME280;29304;56.146;40.396;2022-07-29T00:39:53;99465.94;;;20.12;100.00
43703;BME280;29304;56.146;40.396;2022-07-29T00:40:05;99472.63;;;20.07;100.00
43703;BME280;29304;56.146;40.396;2022-07-29T00:40:15;99463.56;;;20.09;100.00
43703;BME280;29304;56.146;40.396;2022-07-29T00:40:26;99464.16;;;20.03;100.00
43703;BME280;29304;56.146;40.396;2022-07-29T00:40:36;99466.34;;;20.08;100.00
43703;BME280;29304;56.146;40.396;2022-07-29T00:40:47;99465.41;;;19.99;100.00
43703;BME280;29304;56.146;40.396;2022-07-29T00:40:58;99470.97;;;20.06;100.00
43703;BME280;29304;56.146;40.396;2022-07-29T00:41:08;99468.47;;;20.04;100.00
43703;BME280;29304;56.146;40.396;2022-07-29T00:41:19;99463.59;;;20.00;100.00
43703;BME280;29304;56.146;40.396;2022-07-29T00:41:29;99469.88;;;19.98;100.00
43703;BME280;29304;56.146;40.396;2022-07-29T00:41:39;99467.09;;;20.00;100.00
43703;BME280;29304;56.146;40.396;2022-07-29T00:41:50;99474.88;;;20.02;100.00
43703;BME280;29304;56.146;40.396;2022-07-29T00:42:04;99472.78;;;20.05;100.00
43703;BME280;29304;56.146;40.396;2022-07-29T00:42:15;99477.25;;;20.05;100.00
43703;BME280;29304;56.146;40.396;2022-07-29T00:42:26;99466.94;;;20.02;100.00
43703;BME280;29304;56.146;40.396;2022-07-29T00:42:49;99465.84;;;19.94;100.00
43703;BME280;29304;56.146;40.396;2022-07-29T00:43:00;99470.84;;;19.97;100.00
43703;BME280;29304;56.146;40.396;2022-07-29T00:43:12;99471.00;;;19.96;100.00
43703;BME280;29304;56.146;40.396;2022-07-29T00:43:23;99467.91;;;20.01;100.00
43703;BME280;29304;56.146;40.396;2022-07-29T00:43:34;99472.91;;;20.04;100.00
43703;BME280;29304;56.146;40.396;2022-07-29T00:43:45;99471.66;;;20.08;100.00
43703;BME280;29304;56.146;40.396;2022-07-29T00:43:55;99472.34;;;20.10;100.00
43703;BME280;29304;56.146;40.396;2022-07-29T00:44:06;99473.19;;;20.10;100.00
43703;BME280;29304;56.146;40.396;2022-07-29T00:44:16;99472.34;;;20.10;100.00
43703;BME280;29304;56.146;40.396;2022-07-29T00:44:27;99465.38;;;20.09;100.00
43703;BME280;29304;56.146;40.396;2022-07-29T00:44:38;99470.13;;;20.05;100.00
43703;BME280;29304;56.146;40.396;2022-07-29T00:44:49;99471.66;;;20.08;100.00
43703;BME280;29304;56.146;40.396;2022-07-29T00:45:00;99466.09;;;20.01;100.00
43703;BME280;29304;56.146;40.396;2022-07-29T00:45:11;99464.44;;;20.00;100.00
43703;BME280;29304;56.146;40.396;2022-07-29T00:45:22;99473.78;;;20.04;100.00
43703;BME280;29304;56.146;40.396;2022-07-29T00:45:33;99453.28;;;19.96;100.00
43703;BME280;29304;56.146;40.396;2022-07-29T00:45:43;99469.03;;;19.98;100.00
43703;BME280;29304;56.146;40.396;2022-07-29T00:45:54;99470.72;;;19.99;100.00
43703;BME280;29304;56.146;40.396;2022-07-29T00:46:05;99467.63;;;20.04;100.00
43703;BME280;29304;56.146;40.396;2022-07-29T00:46:15;99472.22;;;20.02;100.00
43703;BME280;29304;56.146;40.396;2022-07-29T00:46:25;99465.25;;;20.01;100.00
43703;BME280;29304;56.146;40.396;2022-07-29T00:46:36;99464.44;;;20.00;100.00
43703;BME280;29304;56.146;40.396;2022-07-29T00:46:46;99470.81;;;20.07;100.00
43703;BME280;29304;56.146;40.396;2022-07-29T00:46:57;99472.91;;;20.04;100.00
43703;BME280;29304;56.146;40.396;2022-07-29T00:47:09;99476.25;;;20.06;100.00
43703;BME280;29304;56.146;40.396;2022-07-29T00:47:20;99473.03;;;20.12;100.00
43703;BME280;29304;56.146;40.396;2022-07-29T00:47:30;99470.38;;;20.12;100.00
43703;BME280;29304;56.146;40.396;2022-07-29T00:47:41;99464.00;;;20.05;100.00
43703;BME280;29304;56.146;40.396;2022-07-29T00:47:51;99462.59;;;20.10;100.00
43703;BME280;29304;56.146;40.396;2022-07-29T00:48:02;99470.66;;;20.09;100.00
43703;BME280;29304;56.146;40.396;2022-07-29T00:48:14;99466.91;;;20.11;100.00
43703;BME280;29304;56.146;40.396;2022-07-29T00:48:25;99469.41;;;20.13;100.00
43703;BME280;29304;56.146;40.396;2022-07-29T00:48:35;99466.34;;;20.08;100.00
43703;BME280;29304;56.146;40.396;2022-07-29T00:48:46;99466.91;;;20.11;100.00
43703;BME280;29304;56.146;40.396;2022-07-29T00:48:57;99473.72;;;20.14;100.00
43703;BME280;29304;56.146;40.396;2022-07-29T00:49:08;99466.75;;;20.13;100.00
43703;BME280;29304;56.146;40.396;2022-07-29T00:49:18;99471.63;;;20.18;100.00
43703;BME280;29304;56.146;40.396;2022-07-29T00:49:29;99467.72;;;20.12;100.00
43703;BME280;29304;56.146;40.396;2022-07-29T00:49:41;99449.22;;;20.02;100.00
43703;BME280;29304;56.146;40.396;2022-07-29T00:49:51;99470.66;;;20.09;100.00
43703;BME280;29304;56.146;40.396;2022-07-29T00:50:04;99474.47;;;20.06;100.00
43703;BME280;29304;56.146;40.396;2022-07-29T00:50:15;99466.50;;;20.06;100.00
43703;BME280;29304;56.146;40.396;2022-07-29T00:50:27;99469.97;;;20.07;100.00
43703;BME280;29304;56.146;40.396;2022-07-29T00:50:37;99456.47;;;20.00;100.00
43703;BME280;29304;56.146;40.396;2022-07-29T00:50:49;99468.75;;;20.01;100.00
43703;BME280;29304;56.146;40.396;2022-07-29T00:51:02;99467.09;;;20.00;100.00
43703;BME280;29304;56.146;40.396;2022-07-29T00:51:13;99467.63;;;20.04;100.00
43703;BME280;29304;56.146;40.396;2022-07-29T00:51:25;99456.38;;;19.92;100.00
43703;BME280;29304;56.146;40.396;2022-07-29T00:51:37;99466.69;;;19.95;100.00
43703;BME280;29304;56.146;40.396;2022-07-29T00:51:48;99465.13;;;19.92;100.00
43703;BME280;29304;56.146;40.396;2022-07-29T00:52:06;99457.34;;;19.91;100.00
43703;BME280;29304;56.146;40.396;2022-07-29T00:52:16;99466.28;;;19.90;100.00
43703;BME280;29304;56.146;40.396;2022-07-29T00:52:27;99472.56;;;19.89;100.00
43703;BME280;29304;56.146;40.396;2022-07-29T00:52:39;99478.38;;;19.92;100.00
43703;BME280;29304;56.146;40.396;2022-07-29T00:52:50;99471.69;;;19.88;100.00
43703;BME280;29304;56.146;40.396;2022-07-29T00:53:01;99461.41;;;19.85;100.00
43703;BME280;29304;56.146;40.396;2022-07-29T00:53:12;99470.03;;;19.87;100.00
43703;BME280;29304;56.146;40.396;2022-07-29T00:53:23;99464.16;;;19.83;100.00
43703;BME280;29304;56.146;40.396;2022-07-29T00:53:35;99460.69;;;19.83;100.00
43703;BME280;29304;56.146;40.396;2022-07-29T00:53:46;99460.53;;;19.85;100.00
43703;BME280;29304;56.146;40.396;2022-07-29T00:54:02;99472.41;;;19.90;100.00
43703;BME280;29304;56.146;40.396;2022-07-29T00:54:12;99472.97;;;19.94;100.00
43703;BME280;29304;56.146;40.396;2022-07-29T00:54:23;99472.09;;;19.93;100.00
43703;BME280;29304;56.146;40.396;2022-07-29T00:54:34;99467.94;;;19.91;100.00
43703;BME280;29304;56.146;40.396;2022-07-29T00:54:44;99468.38;;;19.86;100.00
43703;BME280;29304;56.146;40.396;2022-07-29T00:54:55;99470.16;;;19.86;100.00
43703;BME280;29304;56.146;40.396;2022-07-29T00:55:09;99468.78;;;19.91;100.00
43703;BME280;29304;56.146;40.396;2022-07-29T00:55:20;99466.13;;;19.91;100.00
43703;BME280;29304;56.146;40.396;2022-07-29T00:55:30;99465.44;;;19.89;100.00
43703;BME280;29304;56.146;40.396;2022-07-29T00:55:41;99462.50;;;19.92;100.00
43703;BME280;29304;56.146;40.396;2022-07-29T00:55:53;99467.78;;;19.92;100.00
43703;BME280;29304;56.146;40.396;2022-07-29T00:56:04;99458.84;;;19.93;100.00
43703;BME280;29304;56.146;40.396;2022-07-29T00:56:15;99465.84;;;19.94;100.00
43703;BME280;29304;56.146;40.396;2022-07-29T00:56:25;99461.78;;;19.90;100.00
43703;BME280;29304;56.146;40.396;2022-07-29T00:56:36;99460.81;;;19.91;100.00
43703;BME280;29304;56.146;40.396;2022-07-29T00:56:47;99455.25;;;19.85;100.00
43703;BME280;29304;56.146;40.396;2022-07-29T00:56:57;99459.56;;;19.86;100.00